CheckWX is a tool to help pilots better visualize weather data.  It is not intended as a substitute for an official pre-flight weather briefing.

02:57:54 UTC

EKCH TAF
Copenhagen Kastrup Airport
Copenhagen, Denmark
TAF EKCH 252308Z 2600/2624 09006KT CAVOK TEMPO 2611/2616 17010KT

Aug-26@
00:00 UTC

Aug-26 @ 00:00 UTC

Aug-27@
00:00 UTC

Aug-27 @ 00:00 UTC

TAF EKCH 252308Z 2600/2624 09006KT CAVOK
Wind
  • 090° at 6 KTS
Conditions
No significant weather
Cloud Levels
  • No significant clouds

Aug-26@
11:00 UTC

Aug-26 @ 11:00 UTC

Aug-26@
16:00 UTC

Aug-26 @ 16:00 UTC

TEMPO 2611/2616 17010KT

Temporary

Temporary Changes expected for less than half the time period

Wind
  • 170° at 10 KTS